Fairchild Air Force Base
KSKA : now visible

Airfield :











YOU CAN JOIN US ON...

 
LOGIN :

Register | Disclaimer

   EN    FR    IT 

 









Legend :    VFR   Marginal VFR   IFR   Intensive IFR   Very Intensive IFR
Visi :
Ceiling :
>= 8 km
>= 3000ft
5 to 8 km
1000 to 3000 ft
1500m to 5 km
500 to 1000 ft
800 to 1500m
200 to 500 ft
< 800m
< 200 ft
Symbols :   Thunderstorms  Fog  Heavy snow  Heavy precipitations  Wind > 20 kt






- Airport Elevation : 2461 ft


KSKA - Fairchild Air Force Base

CURRENT METAR :
  • 232359Z 17007KT 1/2SM -RA FG OVC004 04/04 A3002 RMK VIS 3/8 RWY05 VIS 3/8 RWY05/23 CIG 002 RWY05 SLP185 P0002 60014 4/003 T00350035 10035 20030 $

EXPIRED METARs :
  • 232337Z 16008KT 1 1/2SM -RA BR OVC004 03/03 A3002 RMK AO2A VIS 1/2 RWY05 VIS 1 1/8 RWY05/23 CIG 003 RWY05 SLP187 $
  • 232331Z 17009KT 1 1/2SM -RA BR OVC005 03/03 A3002 RMK VIS 5/8 RWY05 VIS 2 RWY05/23 CIG 003 RWY05 SLP187 $
  • 232308Z 15005KT 4SM -RA BR OVC005 03/03 A3002 RMK AO2A VIS 1 3/8 RWY05 CIG 003 RWY05 SLP187 $
  • 232238Z AUTO 15008KT 10SM -RA BR OVC006 03/03 A3002 RMK AO2 CIG 003 RWY05 SLP187 $
  • 232224Z 14010KT 4SM -RA BR OVC007 03/03 A3002 RMK AO2A OVC V BKN CIG 003 RWY05 SLP187 $
  • 232158Z 14010KT 3SM -RA BR SCT010 OVC018 03/03 A3003 RMK AO2A CIG 005 RWY05 SLP190 P0005 T00330033 $
  • 232143Z 14009KT 10SM -RA FEW007 OVC019 03/03 A3003 RMK AO2A CIG 005 RWY05 SLP190 $

TAF AMD TAF KSKA
Valid from the 23 at 21:00 until the 25 at 01:00 UTC


232120Z 2321/2501 13006KT 8000 -RA BR FEW008 SCT015 OVC030 620409 QNH3004INS
BECMG 2322/2324 16006KT 8000 -RA BR BKN006 OVC015 620409 QNH2988INS
BECMG 2417/2418 22012G18KT 9999 VCSH SCT008 OVC015 QNH2992INS TX06/2419Z TN03/2321Z



MET'MAP, your aeronautical weather chart ! - Copyright ORBIFLY December 2007 - Disclaimer

ORBIFLY MET'MAP TEAM :

Programming & Development : Alexandra Zaïnal
Concept & original design : Baudouin d'Aumeries
Assistance for programming : Marc-Olivier Méhu
Technical & hardware support : Manuel Goepfert

Contact : metmap@orbifly.com




SOURCES & CREDITS :

   NOAA       Earth
Advisory